Time;durP1;ratioP1;P1;durP2;ratioP2;P2;SDS_P1;SDS_P2;PMS_P1;PMS_P2;Temp;Humidity;BMP_temperature;BMP_pressure;BME280_temperature;BME280_humidity;BME280_pressure;Samples;Min_cycle;Max_cycle;Signal;HPM_P1;HPM_P2
2023/01/01 00:02:10;;;;;;;178.73;112.97;;;5.50;99.90;;;;;;5054342;28;20904;-78
2023/01/01 00:04:37;;;;;;;245.27;100.37;;;5.60;99.90;;;;;;5051997;28;20522;-78
2023/01/01 00:07:04;;;;;;;490.63;131.67;;;5.60;99.90;;;;;;5057238;28;20520;-78
2023/01/01 00:12:15;;;;;;;147.57;52.73;;;5.70;99.90;;;;;;5059697;28;20435;-81
2023/01/01 00:14:43;;;;;;;208.90;70.23;;;5.70;99.90;;;;;;5051011;28;20514;-81
2023/01/01 00:17:11;;;;;;;119.97;50.90;;;5.60;99.90;;;;;;5056788;28;20454;-79
2023/01/01 00:19:38;;;;;;;413.17;125.07;;;5.40;99.90;;;;;;5055583;28;20449;-79
2023/01/01 00:22:05;;;;;;;328.13;106.83;;;5.40;99.90;;;;;;5054079;28;20605;-81
2023/01/01 00:24:32;;;;;;;393.97;111.00;;;5.40;99.90;;;;;;5055982;28;20511;-79
2023/01/01 00:26:59;;;;;;;428.63;130.17;;;5.40;99.90;;;;;;5054508;28;20514;-79
2023/01/01 00:29:26;;;;;;;289.17;83.70;;;5.20;99.90;;;;;;5053984;28;20468;-79
2023/01/01 00:31:53;;;;;;;371.20;110.33;;;5.20;99.90;;;;;;5058107;28;20532;-79
2023/01/01 00:34:21;;;;;;;330.43;111.97;;;5.20;99.90;;;;;;5053516;28;21013;-79
2023/01/01 00:36:48;;;;;;;196.30;74.33;;;5.30;99.90;;;;;;5054824;28;20931;-79
2023/01/01 00:39:15;;;;;;;290.80;96.00;;;5.20;99.90;;;;;;5057270;28;20458;-79
2023/01/01 00:41:42;;;;;;;436.13;116.17;;;5.20;99.90;;;;;;5050876;28;21035;-79
2023/01/01 00:44:09;;;;;;;422.53;119.63;;;5.20;99.90;;;;;;5055610;28;20460;-79
2023/01/01 00:46:36;;;;;;;394.73;111.50;;;5.10;99.90;;;;;;5052944;28;20460;-79
2023/01/01 00:49:03;;;;;;;269.67;85.37;;;5.00;99.90;;;;;;5054098;28;20464;-79
2023/01/01 00:51:31;;;;;;;350.93;105.53;;;4.90;99.90;;;;;;5054317;28;20517;-79
2023/01/01 00:53:58;;;;;;;137.07;54.43;;;4.80;99.90;;;;;;5051158;28;20494;-79
2023/01/01 00:56:25;;;;;;;297.07;98.23;;;4.70;99.90;;;;;;5051332;28;20526;-79
2023/01/01 00:58:52;;;;;;;198.93;73.97;;;4.70;99.90;;;;;;5050178;28;20826;-79
2023/01/01 01:01:19;;;;;;;346.37;112.93;;;4.70;99.90;;;;;;5053549;28;20487;-79
2023/01/01 01:03:46;;;;;;;388.40;111.03;;;4.70;99.90;;;;;;5050734;28;20525;-79
2023/01/01 01:06:16;;;;;;;340.87;108.00;;;4.80;99.90;;;;;;5048848;28;20989;-79
2023/01/01 01:08:46;;;;;;;266.10;86.83;;;4.90;99.90;;;;;;5050336;28;20457;-79
2023/01/01 01:11:15;;;;;;;300.33;103.03;;;4.90;99.90;;;;;;5052255;28;20874;-79
2023/01/01 01:13:43;;;;;;;289.43;98.90;;;4.80;99.90;;;;;;5054346;28;20449;-79
2023/01/01 01:16:11;;;;;;;193.07;72.90;;;4.90;99.90;;;;;;5049562;28;20495;-81
2023/01/01 01:18:38;;;;;;;138.67;61.80;;;4.90;99.90;;;;;;5049790;28;20912;-79
2023/01/01 01:21:06;;;;;;;99.03;51.83;;;4.80;99.90;;;;;;5051441;28;20488;-79
2023/01/01 01:23:34;;;;;;;78.30;49.87;;;4.70;99.90;;;;;;5052760;28;20460;-79
2023/01/01 01:26:10;;;;;;;89.37;46.90;;;4.60;99.90;;;;;;5048785;28;21091;-79
2023/01/01 01:28:37;;;;;;;77.83;47.17;;;4.50;99.90;;;;;;5049865;28;20979;-79
2023/01/01 01:31:04;;;;;;;231.10;73.07;;;4.50;99.90;;;;;;5049258;28;20468;-81
2023/01/01 01:33:31;;;;;;;444.30;124.87;;;4.60;99.90;;;;;;5049782;28;20452;-82
2023/01/01 01:35:58;;;;;;;347.33;121.10;;;4.60;99.90;;;;;;5050236;28;20453;-81
2023/01/01 01:38:25;;;;;;;266.83;104.13;;;4.60;99.90;;;;;;5049169;28;20440;-81
2023/01/01 01:40:52;;;;;;;97.83;60.60;;;4.60;99.90;;;;;;5049288;28;20480;-81
2023/01/01 01:43:24;;;;;;;84.67;48.00;;;4.70;99.90;;;;;;5051330;28;20444;-81
2023/01/01 01:45:54;;;;;;;70.53;48.67;;;4.90;99.90;;;;;;5046211;28;20886;-78
2023/01/01 01:48:22;;;;;;;67.90;42.23;;;5.20;99.90;;;;;;5052194;28;20909;-81
2023/01/01 01:50:51;;;;;;;72.80;44.33;;;5.40;99.90;;;;;;5047225;28;20903;-81
2023/01/01 01:53:22;;;;;;;67.90;42.27;;;5.50;99.90;;;;;;5060380;28;20845;-81
2023/01/01 01:55:53;;;;;;;66.87;41.13;;;5.70;99.90;;;;;;5047654;28;20535;-81
2023/01/01 01:58:22;;;;;;;66.60;38.97;;;5.70;99.90;;;;;;5050538;28;20463;-82
2023/01/01 02:00:49;;;;;;;58.47;39.90;;;5.80;99.90;;;;;;5047077;28;20486;-79
2023/01/01 02:03:21;;;;;;;59.40;39.80;;;5.90;99.90;;;;;;5049635;28;20907;-81
2023/01/01 02:05:50;;;;;;;61.10;37.97;;;6.10;99.90;;;;;;5047971;28;20495;-81
2023/01/01 02:08:17;;;;;;;58.13;35.27;;;6.10;99.90;;;;;;5050525;28;20514;-82
2023/01/01 02:10:44;;;;;;;59.67;37.07;;;6.10;99.90;;;;;;5047483;28;20940;-82
2023/01/01 02:13:12;;;;;;;54.80;35.47;;;6.00;99.90;;;;;;5053135;28;20443;-81
2023/01/01 02:15:48;;;;;;;72.93;40.90;;;5.90;99.90;;;;;;5048853;28;20476;-82
2023/01/01 02:18:19;;;;;;;74.23;49.70;;;5.50;99.90;;;;;;5052390;28;20447;-81
2023/01/01 02:20:53;;;;;;;73.63;47.80;;;5.20;99.90;;;;;;5049416;28;20503;-82
2023/01/01 02:23:33;;;;;;;76.23;47.07;;;5.00;99.90;;;;;;5051871;28;20444;-82
2023/01/01 02:26:25;;;;;;;84.13;55.10;;;4.90;99.90;;;;;;5049498;28;20873;-81
2023/01/01 02:29:00;;;;;;;61.93;46.67;;;4.70;99.90;;;;;;5053679;28;20804;-79
2023/01/01 02:31:29;;;;;;;72.83;44.00;;;4.50;99.90;;;;;;5051148;28;20488;-81
2023/01/01 02:34:00;;;;;;;68.37;43.27;;;4.50;99.90;;;;;;5046516;28;20524;-81
2023/01/01 02:36:30;;;;;;;60.27;40.70;;;4.60;99.90;;;;;;5050769;28;20465;-81
2023/01/01 02:39:00;;;;;;;80.03;45.67;;;4.60;99.90;;;;;;5049486;28;20456;-81
2023/01/01 02:41:31;;;;;;;58.73;37.80;;;4.60;99.90;;;;;;5052302;28;20533;-82
2023/01/01 02:43:59;;;;;;;39.43;29.27;;;4.60;99.90;;;;;;5046472;28;20522;-82
2023/01/01 02:46:32;;;;;;;63.73;37.33;;;4.60;99.90;;;;;;5049985;28;20926;-82
2023/01/01 02:48:59;;;;;;;53.60;32.13;;;4.50;99.90;;;;;;5053800;28;20603;-82
2023/01/01 02:51:35;;;;;;;40.47;27.73;;;4.50;99.90;;;;;;5048822;28;20453;-82
2023/01/01 02:54:08;;;;;;;42.60;30.63;;;4.50;99.90;;;;;;5045648;28;20456;-81
2023/01/01 02:56:42;;;;;;;36.53;28.33;;;4.60;99.90;;;;;;5050841;28;20511;-81
2023/01/01 03:02:18;;;;;;;40.67;28.70;;;4.70;99.90;;;;;;5048476;28;20540;-81
2023/01/01 03:04:56;;;;;;;47.83;31.30;;;4.90;99.90;;;;;;5048980;28;20495;-79
2023/01/01 03:07:32;;;;;;;45.10;30.57;;;5.20;99.90;;;;;;5048467;28;20443;-81
2023/01/01 03:10:04;;;;;;;55.63;31.77;;;5.40;99.90;;;;;;5044805;28;20496;-81
2023/01/01 03:12:42;;;;;;;41.30;29.70;;;5.40;99.90;;;;;;5052484;28;20565;-82
2023/01/01 03:15:19;;;;;;;38.83;25.17;;;5.60;99.90;;;;;;5045805;28;20472;-81
2023/01/01 03:17:50;;;;;;;36.03;24.90;;;5.80;99.90;;;;;;5046972;28;20522;-82
2023/01/01 03:20:22;;;;;;;44.63;29.30;;;5.70;99.90;;;;;;5048127;28;20537;-82
2023/01/01 03:22:52;;;;;;;40.77;29.30;;;5.60;99.90;;;;;;5045748;28;20507;-82
2023/01/01 03:25:23;;;;;;;59.27;31.60;;;5.50;99.90;;;;;;5048800;28;20462;-82
2023/01/01 03:27:56;;;;;;;51.10;33.27;;;5.40;99.90;;;;;;5049906;28;20455;-82
2023/01/01 03:30:25;;;;;;;66.67;34.00;;;5.10;99.90;;;;;;5048496;28;20492;-81
2023/01/01 03:33:03;;;;;;;277.47;72.83;;;5.00;99.90;;;;;;5049326;28;20464;-79
2023/01/01 03:35:38;;;;;;;139.00;50.20;;;4.70;99.90;;;;;;5049558;28;20451;-79
2023/01/01 03:38:10;;;;;;;137.53;56.67;;;4.60;99.90;;;;;;5054106;28;20917;-82
2023/01/01 03:40:39;;;;;;;188.27;64.93;;;4.70;99.90;;;;;;5056217;28;20990;-82
2023/01/01 03:43:11;;;;;;;59.27;35.80;;;4.50;99.90;;;;;;5048274;28;21355;-81
2023/01/01 03:45:43;;;;;;;45.40;31.93;;;4.50;99.90;;;;;;5045152;28;20684;-82
2023/01/01 03:48:11;;;;;;;49.73;31.80;;;4.40;99.90;;;;;;5045500;28;20494;-82
2023/01/01 03:50:47;;;;;;;47.90;30.83;;;4.40;99.90;;;;;;5048606;28;20460;-82
2023/01/01 03:53:25;;;;;;;48.50;35.37;;;4.40;99.90;;;;;;5052288;28;20471;-82
2023/01/01 03:56:05;;;;;;;40.70;31.53;;;4.40;99.90;;;;;;5045971;28;20459;-81
2023/01/01 03:58:36;;;;;;;145.17;59.83;;;4.30;99.90;;;;;;5047807;28;20517;-81
2023/01/01 04:01:11;;;;;;;49.07;32.10;;;4.10;99.90;;;;;;5048653;28;20492;-81
2023/01/01 04:03:40;;;;;;;142.97;57.00;;;4.10;99.90;;;;;;5044794;28;20462;-81
2023/01/01 04:06:09;;;;;;;45.07;30.40;;;4.00;99.90;;;;;;5046045;28;20884;-81
2023/01/01 04:08:36;;;;;;;44.20;28.73;;;4.20;99.90;;;;;;5049591;28;20575;-81
2023/01/01 04:12:00;;;;;;;39.47;28.47;;;4.20;99.90;;;;;;5045745;28;20460;-81
2023/01/01 04:13:56;;;;;;;39.83;28.73;;;4.30;99.90;;;;;;5046076;28;20449;-81
2023/01/01 04:16:24;;;;;;;37.80;28.30;;;4.40;99.90;;;;;;5051388;28;20688;-81
2023/01/01 04:18:51;;;;;;;47.53;31.43;;;4.50;99.90;;;;;;5048735;28;20461;-81
2023/01/01 04:21:18;;;;;;;43.90;31.37;;;4.60;99.90;;;;;;5048633;28;20516;-81
2023/01/01 04:23:45;;;;;;;48.43;30.13;;;4.60;99.90;;;;;;5049459;28;20521;-81
2023/01/01 04:26:13;;;;;;;42.37;27.17;;;4.60;99.90;;;;;;5046923;28;20530;-81
2023/01/01 04:28:41;;;;;;;44.63;30.43;;;4.60;99.90;;;;;;5047767;28;20445;-81
2023/01/01 04:31:08;;;;;;;37.93;27.17;;;4.60;99.90;;;;;;5048902;28;20483;-81
2023/01/01 04:33:37;;;;;;;46.33;31.67;;;4.50;99.90;;;;;;5053936;28;20443;-81
2023/01/01 04:36:06;;;;;;;46.37;33.50;;;4.40;99.90;;;;;;5048681;28;20909;-81
2023/01/01 04:38:34;;;;;;;43.10;31.63;;;4.50;99.90;;;;;;5052259;28;20729;-81
2023/01/01 04:41:02;;;;;;;43.77;30.20;;;4.50;99.90;;;;;;5051151;28;20468;-81
2023/01/01 04:43:29;;;;;;;48.10;33.10;;;4.40;99.90;;;;;;5051558;28;20441;-81
2023/01/01 04:45:57;;;;;;;43.27;30.20;;;4.30;99.90;;;;;;5054250;28;20553;-81
2023/01/01 04:48:25;;;;;;;56.80;33.80;;;4.30;99.90;;;;;;5054927;28;20444;-81
2023/01/01 04:50:57;;;;;;;47.23;31.27;;;4.30;99.90;;;;;;5050900;28;20464;-81
2023/01/01 04:53:24;;;;;;;41.97;30.30;;;4.30;99.90;;;;;;5050000;28;20960;-81
2023/01/01 04:55:51;;;;;;;49.77;29.27;;;4.20;99.90;;;;;;5047863;28;20461;-82
2023/01/01 04:58:18;;;;;;;43.50;28.57;;;4.20;99.90;;;;;;5050149;28;20450;-81
2023/01/01 05:00:49;;;;;;;46.53;27.10;;;4.20;99.90;;;;;;5051376;28;20444;-81
2023/01/01 05:03:16;;;;;;;40.33;29.30;;;4.30;99.90;;;;;;5050393;28;20583;-81
2023/01/01 05:05:43;;;;;;;37.60;29.00;;;4.30;99.90;;;;;;5048820;28;20513;-81
2023/01/01 05:08:12;;;;;;;49.30;30.67;;;4.20;99.90;;;;;;5049514;28;20804;-81
2023/01/01 05:10:39;;;;;;;36.97;29.70;;;4.10;99.90;;;;;;5052478;28;20525;-81
2023/01/01 05:13:09;;;;;;;42.50;30.13;;;4.10;99.90;;;;;;5056003;28;20460;-81
2023/01/01 05:15:37;;;;;;;42.20;29.50;;;4.10;99.90;;;;;;5051063;28;20465;-81
2023/01/01 05:18:04;;;;;;;37.83;27.93;;;4.00;99.90;;;;;;5050975;28;20480;-81
2023/01/01 05:20:31;;;;;;;46.67;29.47;;;4.10;99.90;;;;;;5054484;28;20491;-81
2023/01/01 05:22:58;;;;;;;37.90;29.07;;;4.20;99.90;;;;;;5052593;28;20572;-81
2023/01/01 05:25:27;;;;;;;40.67;26.90;;;4.20;99.90;;;;;;5059014;28;20797;-81
2023/01/01 05:27:54;;;;;;;41.90;28.27;;;4.20;99.90;;;;;;5049835;28;20460;-81
2023/01/01 05:30:21;;;;;;;42.43;28.97;;;4.20;99.90;;;;;;5047644;28;20492;-81
2023/01/01 05:32:48;;;;;;;46.60;28.90;;;4.30;99.90;;;;;;5048875;28;20486;-81
2023/01/01 05:35:16;;;;;;;44.23;29.67;;;4.20;99.90;;;;;;5049692;28;20462;-81
2023/01/01 05:37:43;;;;;;;41.25;27.88;;;4.20;99.90;;;;;;5048130;28;20549;-81
2023/01/01 05:40:11;;;;;;;42.10;28.90;;;4.20;99.90;;;;;;5045712;28;20319;-81
2023/01/01 05:42:40;;;;;;;33.73;25.00;;;4.10;99.90;;;;;;5050529;28;20487;-81
2023/01/01 05:45:07;;;;;;;34.20;24.30;;;4.10;99.90;;;;;;5048715;28;20465;-81
2023/01/01 05:47:34;;;;;;;160.63;56.23;;;4.20;99.90;;;;;;5049183;28;20522;-81
2023/01/01 05:50:01;;;;;;;37.30;26.13;;;4.20;99.90;;;;;;5047856;28;20468;-81
2023/01/01 05:52:28;;;;;;;44.17;28.30;;;4.20;99.90;;;;;;5054097;28;20552;-81
2023/01/01 05:54:57;;;;;;;39.83;28.00;;;4.10;99.90;;;;;;5054365;28;20490;-81
2023/01/01 05:57:24;;;;;;;44.05;28.80;;;4.10;99.90;;;;;;5051542;28;20559;-81
2023/01/01 05:59:52;;;;;;;46.90;33.30;;;4.10;99.90;;;;;;5048758;28;20252;-81
2023/01/01 06:02:19;;;;;;;48.43;31.30;;;4.10;99.90;;;;;;5048729;28;20811;-81
2023/01/01 06:04:46;;;;;;;44.80;33.67;;;4.10;99.90;;;;;;5047975;28;20542;-81
2023/01/01 06:07:13;;;;;;;55.20;31.50;;;4.20;99.90;;;;;;5051780;28;20452;-81
2023/01/01 06:09:40;;;;;;;44.23;31.97;;;4.20;99.90;;;;;;5050922;28;20472;-81
2023/01/01 06:12:08;;;;;;;45.03;31.13;;;4.20;99.90;;;;;;5048685;28;20441;-81
2023/01/01 06:14:35;;;;;;;40.37;27.67;;;4.20;99.90;;;;;;5050264;28;20455;-81
2023/01/01 06:17:03;;;;;;;41.97;28.37;;;4.20;99.90;;;;;;5049389;28;21132;-81
2023/01/01 06:19:30;;;;;;;42.77;28.73;;;4.00;99.90;;;;;;5050181;28;20643;-81
2023/01/01 06:21:57;;;;;;;49.37;31.30;;;3.90;99.90;;;;;;5043233;28;20538;-81
2023/01/01 06:24:24;;;;;;;47.00;30.17;;;3.80;99.90;;;;;;5048612;28;20962;-81
2023/01/01 06:26:51;;;;;;;46.43;30.20;;;3.70;99.90;;;;;;5054587;28;20683;-81
2023/01/01 06:29:18;;;;;;;40.47;26.87;;;3.70;99.90;;;;;;5050038;28;20455;-81
2023/01/01 06:31:45;;;;;;;49.20;32.97;;;3.60;99.90;;;;;;5047645;28;20536;-81
2023/01/01 06:34:13;;;;;;;40.90;30.80;;;3.60;99.90;;;;;;5046235;28;20510;-81
2023/01/01 06:36:40;;;;;;;37.07;24.97;;;3.40;99.90;;;;;;5052333;28;20528;-81
2023/01/01 06:39:07;;;;;;;38.57;23.70;;;3.30;99.90;;;;;;5044908;28;20456;-81
2023/01/01 06:41:35;;;;;;;33.60;21.60;;;3.30;99.90;;;;;;5048184;28;20487;-81
2023/01/01 06:44:02;;;;;;;26.53;16.67;;;3.40;99.90;;;;;;5045781;28;21131;-81
2023/01/01 06:46:31;;;;;;;30.23;21.13;;;3.50;99.90;;;;;;5049545;28;20472;-81
2023/01/01 06:48:59;;;;;;;27.77;20.53;;;3.50;99.90;;;;;;5053687;28;20467;-81
2023/01/01 06:51:29;;;;;;;32.37;21.00;;;3.50;99.90;;;;;;5047833;28;20940;-81
2023/01/01 06:53:59;;;;;;;26.80;19.23;;;3.50;99.90;;;;;;5047000;28;20510;-81
2023/01/01 06:56:26;;;;;;;24.17;16.00;;;3.40;99.90;;;;;;5046612;28;20466;-81
2023/01/01 06:58:52;;;;;;;31.07;19.70;;;3.50;99.90;;;;;;5049083;28;20546;-81
2023/01/01 07:01:21;;;;;;;29.90;19.20;;;3.70;99.90;;;;;;5046792;28;20648;-81
2023/01/01 07:03:52;;;;;;;27.07;17.90;;;3.90;99.90;;;;;;5044554;28;20564;-81
2023/01/01 07:06:19;;;;;;;28.40;16.97;;;4.00;99.90;;;;;;5045481;28;20752;-81
2023/01/01 07:08:47;;;;;;;31.63;21.10;;;4.10;99.90;;;;;;5047748;28;20799;-81
2023/01/01 07:11:14;;;;;;;25.07;16.13;;;4.00;99.90;;;;;;5052661;28;20804;-81
2023/01/01 07:13:41;;;;;;;24.92;13.93;;;4.10;99.90;;;;;;5046164;28;20457;-81
2023/01/01 07:16:09;;;;;;;25.07;13.00;;;4.10;99.90;;;;;;5045427;28;20230;-82
2023/01/01 07:18:35;;;;;;;18.30;13.17;;;4.00;99.90;;;;;;5045221;28;20521;-82
2023/01/01 07:21:04;;;;;;;17.53;11.60;;;4.10;99.90;;;;;;5054663;28;20463;-82
2023/01/01 07:23:33;;;;;;;24.60;13.00;;;4.30;99.90;;;;;;5048401;28;20484;-82
2023/01/01 07:26:02;;;;;;;16.20;12.07;;;4.30;99.90;;;;;;5050397;28;20453;-82
2023/01/01 07:28:29;;;;;;;15.83;11.37;;;4.30;99.90;;;;;;5048920;28;20837;-82
2023/01/01 07:30:56;;;;;;;16.83;11.20;;;4.30;99.90;;;;;;5050099;28;20541;-82
2023/01/01 07:33:24;;;;;;;20.00;12.40;;;4.30;99.90;;;;;;5047094;28;20445;-82
2023/01/01 07:35:51;;;;;;;14.77;10.03;;;4.40;99.90;;;;;;5047167;28;20464;-82
2023/01/01 07:38:18;;;;;;;14.20;9.30;;;4.30;99.90;;;;;;5044039;28;20468;-82
2023/01/01 07:40:45;;;;;;;13.87;9.20;;;4.40;99.90;;;;;;5052117;28;20459;-81
2023/01/01 07:43:13;;;;;;;11.97;9.60;;;4.50;99.90;;;;;;5051883;28;20488;-82
2023/01/01 07:45:40;;;;;;;14.00;10.03;;;4.40;99.90;;;;;;5055471;28;20502;-82
2023/01/01 07:48:12;;;;;;;12.60;9.93;;;4.40;99.90;;;;;;5051777;28;20453;-82
2023/01/01 07:50:39;;;;;;;13.70;10.23;;;4.50;99.90;;;;;;5048218;28;20452;-82
2023/01/01 07:53:05;;;;;;;15.53;8.50;;;4.50;99.90;;;;;;5048108;28;20259;-82
2023/01/01 07:55:33;;;;;;;16.27;9.77;;;4.60;99.90;;;;;;5050766;28;20466;-82
2023/01/01 07:58:01;;;;;;;20.40;12.40;;;4.70;99.90;;;;;;5045268;28;20459;-82
2023/01/01 08:00:29;;;;;;;16.93;12.37;;;4.70;99.90;;;;;;5049264;28;20468;-82
2023/01/01 08:02:57;;;;;;;14.70;11.57;;;4.80;99.90;;;;;;5044374;28;21011;-82
2023/01/01 08:05:24;;;;;;;15.83;11.63;;;4.90;99.90;;;;;;5051819;28;20472;-83
2023/01/01 08:07:51;;;;;;;16.27;11.67;;;5.00;99.90;;;;;;5051023;28;20541;-82
2023/01/01 08:10:20;;;;;;;13.67;9.87;;;5.00;99.90;;;;;;5058706;28;20464;-82
2023/01/01 08:12:47;;;;;;;13.50;10.83;;;5.00;99.90;;;;;;5058078;28;20785;-82
2023/01/01 08:15:14;;;;;;;12.87;11.30;;;5.00;99.90;;;;;;5049132;28;20497;-82
2023/01/01 08:17:43;;;;;;;23.20;14.35;;;5.10;99.90;;;;;;5066572;28;20565;-82
2023/01/01 08:20:10;;;;;;;24.37;18.10;;;5.10;99.90;;;;;;5051070;28;20434;-82
2023/01/01 08:22:37;;;;;;;33.67;22.40;;;5.00;99.90;;;;;;5055324;28;20480;-83
2023/01/01 08:25:05;;;;;;;37.63;25.87;;;5.00;99.90;;;;;;5057829;28;20549;-82
2023/01/01 08:27:32;;;;;;;39.57;27.47;;;4.90;99.90;;;;;;5052362;28;20961;-82
2023/01/01 08:29:59;;;;;;;38.80;27.90;;;4.70;99.90;;;;;;5054267;28;20488;-82
2023/01/01 08:32:26;;;;;;;40.83;29.27;;;4.60;99.90;;;;;;5054360;28;20478;-82
2023/01/01 08:34:54;;;;;;;38.95;25.92;;;4.80;99.90;;;;;;5054909;28;20460;-82
2023/01/01 08:37:22;;;;;;;41.73;28.17;;;4.80;99.90;;;;;;5055041;28;20203;-82
2023/01/01 08:39:50;;;;;;;39.43;28.20;;;4.80;99.90;;;;;;5060329;28;20464;-82
2023/01/01 08:42:17;;;;;;;38.60;28.73;;;5.00;99.90;;;;;;5051778;28;20464;-83
2023/01/01 08:44:44;;;;;;;45.93;31.40;;;5.00;99.90;;;;;;5047972;28;20887;-79
2023/01/01 08:47:21;;;;;;;38.53;27.37;;;4.90;99.90;;;;;;5050637;28;20508;-79
2023/01/01 08:49:48;;;;;;;38.00;26.03;;;4.80;99.90;;;;;;5058819;28;20520;-79
2023/01/01 08:52:17;;;;;;;41.87;29.67;;;4.80;99.90;;;;;;5053319;28;20504;-79
2023/01/01 08:54:44;;;;;;;44.10;32.70;;;4.90;99.90;;;;;;5049016;28;20526;-79
2023/01/01 08:57:12;;;;;;;44.20;32.77;;;4.70;99.90;;;;;;5047074;28;20789;-79
2023/01/01 08:59:39;;;;;;;42.17;31.50;;;4.70;99.90;;;;;;5060273;28;20467;-79
2023/01/01 09:02:06;;;;;;;56.37;33.17;;;4.60;99.90;;;;;;5055547;28;21041;-79
2023/01/01 09:04:33;;;;;;;54.50;36.63;;;4.70;99.90;;;;;;5056936;28;20541;-79
2023/01/01 09:07:01;;;;;;;49.33;31.90;;;4.60;99.90;;;;;;5054708;28;20456;-82
2023/01/01 09:09:29;;;;;;;48.33;32.53;;;4.70;99.90;;;;;;5052483;28;20464;-82
2023/01/01 09:12:02;;;;;;;42.90;31.97;;;4.70;99.90;;;;;;5057455;28;20518;-82
2023/01/01 09:14:29;;;;;;;41.23;30.30;;;4.80;99.90;;;;;;5053779;28;20708;-82
2023/01/01 09:16:56;;;;;;;43.67;33.40;;;4.90;99.90;;;;;;5046957;28;20479;-82
2023/01/01 09:19:23;;;;;;;42.97;29.07;;;4.90;99.90;;;;;;5048496;28;20503;-82
2023/01/01 09:21:50;;;;;;;43.53;31.40;;;4.90;99.90;;;;;;5050911;28;20830;-82
2023/01/01 09:24:17;;;;;;;40.10;30.47;;;4.90;99.90;;;;;;5056403;28;20854;-82
2023/01/01 09:26:46;;;;;;;39.97;33.07;;;5.20;99.90;;;;;;5050376;28;20980;-82
2023/01/01 09:29:17;;;;;;;43.70;34.37;;;5.40;99.90;;;;;;5048445;28;20598;-82
2023/01/01 09:31:44;;;;;;;38.90;32.30;;;5.60;99.90;;;;;;5052680;28;20488;-82
2023/01/01 09:34:11;;;;;;;37.90;31.30;;;5.70;99.90;;;;;;5048590;28;20445;-82
2023/01/01 09:36:38;;;;;;;46.90;35.53;;;5.80;99.90;;;;;;5047520;28;20846;-82
2023/01/01 09:39:05;;;;;;;35.85;28.75;;;5.70;99.90;;;;;;5047786;28;20526;-82
2023/01/01 09:41:48;;;;;;;37.63;29.80;;;5.90;99.90;;;;;;5061781;28;20206;-82
2023/01/01 09:44:30;;;;;;;41.27;29.60;;;6.10;99.90;;;;;;5058139;28;20561;-82
2023/01/01 09:47:00;;;;;;;40.73;29.90;;;6.30;99.90;;;;;;5052667;28;20464;-82
2023/01/01 09:49:33;;;;;;;39.63;30.23;;;6.40;99.90;;;;;;5051028;28;20498;-82
2023/01/01 09:52:04;;;;;;;43.70;29.87;;;6.40;99.90;;;;;;5049863;28;20867;-82
2023/01/01 09:54:33;;;;;;;49.13;33.07;;;6.70;99.90;;;;;;5051458;28;21095;-82
2023/01/01 09:57:07;;;;;;;43.07;29.63;;;6.70;99.90;;;;;;5050849;28;20526;-82
2023/01/01 09:59:34;;;;;;;48.13;31.17;;;6.90;99.90;;;;;;5055131;28;20460;-82
2023/01/01 10:02:14;;;;;;;38.13;28.43;;;7.00;99.90;;;;;;5054099;28;20971;-79
2023/01/01 10:04:54;;;;;;;41.30;28.63;;;7.20;99.90;;;;;;5047293;28;20516;-79
2023/01/01 10:07:29;;;;;;;44.47;32.07;;;7.40;99.90;;;;;;5048468;28;20468;-81
2023/01/01 10:10:03;;;;;;;38.03;29.37;;;7.40;99.90;;;;;;5050145;28;20470;-81
2023/01/01 10:12:40;;;;;;;33.30;27.90;;;7.40;99.90;;;;;;5050282;28;20500;-79
2023/01/01 10:15:15;;;;;;;40.03;28.83;;;7.60;99.90;;;;;;5048513;28;20470;-79
2023/01/01 10:17:45;;;;;;;35.77;29.17;;;7.70;99.90;;;;;;5054518;28;20842;-79
2023/01/01 10:20:19;;;;;;;37.10;30.00;;;7.80;99.90;;;;;;5049175;28;20443;-79
2023/01/01 10:22:51;;;;;;;39.27;33.47;;;7.90;99.90;;;;;;5057704;28;20458;-79
2023/01/01 10:25:20;;;;;;;46.73;38.10;;;8.10;99.90;;;;;;5056423;28;20455;-79
2023/01/01 10:27:53;;;;;;;38.50;33.23;;;8.10;99.90;;;;;;5055841;28;20468;-79
2023/01/01 10:30:22;;;;;;;41.13;33.17;;;8.20;99.90;;;;;;5046786;28;20470;-79
2023/01/01 10:32:51;;;;;;;36.13;32.27;;;8.50;99.90;;;;;;5059800;28;20513;-79
2023/01/01 10:35:19;;;;;;;34.50;29.63;;;8.30;99.90;;;;;;5057276;28;21004;-80
2023/01/01 10:37:48;;;;;;;31.30;26.97;;;8.20;99.90;;;;;;5056251;28;20460;-80
2023/01/01 10:40:18;;;;;;;27.77;24.77;;;8.30;99.90;;;;;;5056421;28;20463;-79
2023/01/01 10:42:50;;;;;;;29.90;25.50;;;8.50;99.90;;;;;;5055383;28;20461;-79
2023/01/01 10:45:20;;;;;;;31.80;25.35;;;8.60;99.90;;;;;;5046805;28;20457;-80
2023/01/01 10:48:09;;;;;;;28.93;24.40;;;8.70;99.90;;;;;;5051773;28;20259;-79
2023/01/01 10:50:43;;;;;;;27.57;24.60;;;8.80;99.90;;;;;;5052108;28;20556;-79
2023/01/01 10:53:27;;;;;;;26.13;22.13;;;8.90;99.90;;;;;;5056872;28;20502;-79
2023/01/01 10:56:04;;;;;;;29.63;23.20;;;9.00;99.90;;;;;;5052254;28;20471;-79
2023/01/01 10:58:39;;;;;;;36.50;25.50;;;9.20;99.90;;;;;;5055044;28;20510;-80
2023/01/01 11:01:08;;;;;;;26.53;23.23;;;9.30;99.90;;;;;;5055728;28;20550;-80
2023/01/01 11:03:36;;;;;;;26.13;20.43;;;9.40;99.90;;;;;;5055234;28;20511;-86
2023/01/01 11:06:07;;;;;;;25.13;21.40;;;9.40;99.90;;;;;;5058445;28;20468;-76
2023/01/01 11:08:37;;;;;;;26.90;22.60;;;9.50;99.90;;;;;;5058104;28;20448;-76
2023/01/01 11:11:04;;;;;;;26.20;19.97;;;9.60;99.90;;;;;;5061112;28;20976;-75
2023/01/01 11:13:32;;;;;;;24.93;21.30;;;9.60;99.90;;;;;;5057451;28;20455;-76
2023/01/01 11:16:01;;;;;;;28.97;23.43;;;9.50;99.90;;;;;;5056762;28;20464;-76
2023/01/01 11:18:34;;;;;;;28.97;20.87;;;9.60;99.90;;;;;;5050440;28;20501;-76
2023/01/01 11:21:03;;;;;;;27.63;20.50;;;9.70;99.90;;;;;;5056582;28;20479;-76
2023/01/01 11:23:33;;;;;;;25.67;21.03;;;9.50;99.90;;;;;;5049362;28;20226;-75
2023/01/01 11:26:07;;;;;;;28.73;22.73;;;9.50;99.90;;;;;;5044160;28;20792;-76
2023/01/01 11:28:35;;;;;;;29.03;23.80;;;9.70;99.90;;;;;;5051613;28;20521;-76
2023/01/01 11:31:07;;;;;;;25.05;22.25;;;9.80;99.90;;;;;;5058015;28;20549;-76
2023/01/01 11:33:36;;;;;;;30.48;24.67;;;9.90;99.90;;;;;;5052682;28;20230;-76
2023/01/01 11:36:06;;;;;;;30.93;24.40;;;9.90;99.90;;;;;;5053753;28;20279;-76
2023/01/01 11:38:33;;;;;;;29.20;24.40;;;9.90;99.90;;;;;;5049656;28;20544;-76
2023/01/01 11:41:05;;;;;;;90.53;56.40;;;9.90;99.90;;;;;;5048452;28;20531;-77
2023/01/01 11:43:40;;;;;;;191.33;112.20;;;9.90;99.90;;;;;;5045221;28;20487;-76
2023/01/01 11:46:12;;;;;;;148.77;92.03;;;10.10;99.90;;;;;;5047662;28;20555;-77
2023/01/01 11:48:42;;;;;;;93.93;63.70;;;10.10;99.90;;;;;;5048255;28;20456;-77
2023/01/01 11:51:11;;;;;;;104.90;73.70;;;10.20;99.90;;;;;;5061209;28;20464;-76
2023/01/01 11:53:40;;;;;;;38.13;30.67;;;10.10;99.90;;;;;;5050672;28;20507;-76
2023/01/01 11:56:14;;;;;;;89.23;60.07;;;10.20;99.90;;;;;;5046900;28;20544;-75
2023/01/01 11:58:50;;;;;;;35.90;29.60;;;10.30;99.90;;;;;;5046023;28;20523;-75
2023/01/01 12:01:26;;;;;;;32.57;24.67;;;10.30;99.90;;;;;;5055032;28;21001;-75
2023/01/01 12:03:58;;;;;;;50.47;40.70;;;10.40;99.90;;;;;;5053813;28;20526;-75
2023/01/01 12:06:32;;;;;;;36.93;31.07;;;10.40;99.90;;;;;;5047553;28;20539;-75
2023/01/01 12:09:05;;;;;;;29.83;22.90;;;10.60;99.90;;;;;;5046367;28;20530;-80
2023/01/01 12:11:37;;;;;;;27.57;24.77;;;10.60;99.90;;;;;;5048852;28;20455;-75
2023/01/01 12:14:13;;;;;;;21.50;19.23;;;10.50;99.90;;;;;;5057285;28;20460;-75
2023/01/01 12:16:50;;;;;;;25.03;21.37;;;10.50;99.90;;;;;;5052450;28;20495;-75
2023/01/01 12:19:23;;;;;;;22.30;18.30;;;10.50;99.90;;;;;;5050313;28;20468;-75
2023/01/01 12:21:54;;;;;;;16.63;14.00;;;10.60;99.90;;;;;;5055333;28;20504;-75
2023/01/01 12:24:21;;;;;;;12.23;10.97;;;10.50;99.90;;;;;;5048718;28;20477;-75
2023/01/01 12:27:12;;;;;;;15.27;13.87;;;10.70;99.90;;;;;;5058798;28;20536;-75
2023/01/01 12:29:57;;;;;;;14.97;13.47;;;10.80;99.90;;;;;;5054984;28;20463;-75
2023/01/01 12:32:34;;;;;;;11.87;9.90;;;10.70;99.90;;;;;;5050353;28;20464;-75
2023/01/01 12:35:11;;;;;;;12.23;9.90;;;10.70;99.90;;;;;;5059407;28;20460;-75
2023/01/01 12:37:50;;;;;;;14.87;13.30;;;10.80;99.90;;;;;;5050207;28;20567;-75
2023/01/01 12:40:38;;;;;;;13.90;11.00;;;10.70;99.90;;;;;;5047352;28;20457;-75
2023/01/01 12:43:08;;;;;;;14.70;12.40;;;10.80;99.90;;;;;;5045274;28;20465;-75
2023/01/01 12:46:21;;;;;;;14.20;12.00;;;10.80;99.90;;;;;;5047381;28;20552;-75
2023/01/01 12:49:14;;;;;;;10.60;9.50;;;10.90;99.90;;;;;;5027719;28;20801;-76
2023/01/01 12:51:49;;;;;;;13.67;8.87;;;10.90;99.90;;;;;;5050217;28;20467;-76
2023/01/01 12:54:42;;;;;;;12.87;10.80;;;10.90;99.90;;;;;;5045404;28;20527;-76